ΕΜΥ, Εθνική Μετεωρολογική Υπηρεσία - Δελτία Καιρού, Προγνώσεις

ΑΕΡΟΝΑΥΤΙΛΙΑ

GREEK AIRPORTS CODES

TAF LGMT 290500Z 2906/2915 17020G33KT 9999 SCT020 SCT030 TEMPO 2906/2915 17027G40KT PROB30 TEMPO 2906/2915 5000 RA SCT012 FEW018TCU BKN020 PROB30 TEMPO 2909/2915 4000 TSRA SCT012 FEW018CB BKN020=

EUROPEAN AIRPORTS CODES

EPWA 290530Z 29011KT 3200 BR OVC002 01/01 Q0991 NOSIG=